Aeroporto :
LOGIN :

Iscrizione | Disclaimer

   EN    FR    IT 

 










Sommario :    VFR   VFR Marginale   IFR   IFR Intensivo   IFR Molto Intensivo
Visibilità : 
Base nubi : 
>= 8 km
>= 3000ft
5 / 8 km
1000 / 3000 ft
1500m / 5 km
500 / 1000 ft
800 / 1500m
200 / 500 ft
< 800m
< 200 ft
Simboli :   Temporali  Nebbia  Neve Forte  Precipitazioni Forti  Vento > 20 kt
SIGMETs :   Varie  Temporali  Ghiacco  Turbolenza  Onda orograficha  Ceneri Vulcaniche







- Altitudine del aeroporto : 187 ft


ETNW - Wunstorf AB

ULTIMO METAR :
  • 191720Z AUTO 07011KT 8000 // ////// 04/01 Q1020 ///

METARs OBSOLETI :
  • 191620Z 07017KT 9999 BKN015TCU BKN040 04/02 Q1020 WHT FCST CANCEL
  • 191600Z 07016KT 6000 -SHRA BKN015TCU BKN040 04/02 Q1020 WHT BLU TEMPO GRN
  • 191550Z 06017G27KT 9999 -SHRA FEW020TCU BKN023 BKN060 05/01 Q1020 WHT BLU TEMPO GRN
  • 191520Z 06014KT 9999 BKN023 BKN060 05/01 Q1020 WHT BLU TEMPO GRN

TAF TAF ETNW
Valido dal 19 a 18 ore il 20 a 18 ore UTC


191701Z 1918/2018 06012KT 9999 NSW SCT012 BKN025
TEMPO 1918/1921 07015G25KT 5000 -SHRA BKN010TCU
BECMG 1919/1921 08015G25KT 9999 NSW BKN014 BKN070
TEMPO 1921/2012 07015G25KT 3000 -RASN BKN006
BECMG 2010/2012 07018G28KT 5000 -SN BKN015
TEMPO 2012/2018 08020G35KT 1000 SN BKN002 BY ETGL
Nessun NOTAM noto per questo aeroporto.



MetMap, La meteo Aeronautica in un colpo d'occhio ! - Copyright ORBIFLY Dicembre 2007 - Disclaimer

ORBIFLY MET'MAP TEAM :

Programmazione e sviluppo : Alexandra Zaïnal
Concezione e sviluppo : Baudouin d'Aumeries
Co-Programmazione e sviluppo : Marc-Olivier Méhu
Supporto tecnico e logistico : Manuel Goepfert
Aiuto per la traduzione : Arnaldo La Scala

Contatto : metmap@orbifly.com




FONTI E CREDITI :

   NOAA